Portada
METAR-TAF:

METAR-TAF

Aeropuertos :

Aeropuerto Internacional de Halifax-Stanfield

Halifax, Nueva Escocia, Canadá

latitud: 44-53N, longitud: 063-30W, altitud: 145 m

Observación

El informe se hizo hace 19 minutos, a las 01:00 UTC
Viento 5 kt del norte
Temperatura 5°C
Humedad 60%
Presión 1038 hPa
Visibilidad: 24.1 km
Cielo despejado

METAR: CYHZ 250100Z 36005KT 15SM SKC 05/M02 A3066 RMK SLP388

Hora: 22:19 (01:19 UTC)

Pronóstico

El informe se hizo hace 1 hora y 41 minutos, a las 23:38 UTC
Pronóstico válido del 25 a las 00 UTC al 25 a las 24 UTC
Viento 5 kt del norte-noreste
Visibilidad: 10 km
Cielo despejado
A partir de las 25 a las 0600 UTC
Viento 3 kt con dirección variable
Visibilidad: 10 km
Cielo despejado
Evolucionando progresivamente
del 25 a las 13 UTC al 25 a las 15 UTC
Viento 12 kt del sur-sureste

TAF: CYHZ 242338Z 2500/2524 02005KT P6SM SKC FM250600 VRB03KT P6SM SKC BECMG 2513/2515 16012KT RMK NXT FCST BY 250300Z

Observaciones y pronósticos meteorológicos de más de 4000 aeropuertos (mensajes METAR y TAF).

Los puntos amarillos y rojos representan las estaciones disponibles.

Ponga el ratón en el punto deseado para ver el nombre de la estación.

Haga clic para ver las observaciones y los pronósticos meteorológicos.

Para cambiar el mapa : haga clic en los botones verdes con una cruz de color negro para hacer un zoom, en el botón verde con un guión para alejar o en las flechas verdes para mapas adyacentes.


METAR-TAF: